Baldwin, Florida
Current Conditions -  °F | °C
As of 9:50 AM on Monday 24 Nov 2014 (Local Time) from KVQQ Reporting Station
Broken Clouds Broken Clouds  
Wind Chill: 75°   Ceiling: 1800
Heat Index: 75°   Visibility: 10mi
Dew Point: 72°   Wind: 6mph
Humidity: 89%   Direction: 210°SSW
Pressure: 29.95"   Gusts: NA
Location:  30.2098°N, 81.9726°W
Report Text: KVQQ 241450Z 21005KT 10SM BKN018 24/22 A2995
Loading
Personal Weather Stations






























Interactive Weather Map New forecast layout! Learn more

10-Day Weather Forecast

Advertisements
Track Severe Weather on mobile